Time;durP1;ratioP1;P1;durP2;ratioP2;P2;SDS_P1;SDS_P2;PMS_P1;PMS_P2;Temp;Humidity;BMP_temperature;BMP_pressure;BME280_temperature;BME280_humidity;BME280_pressure;Samples;Min_cycle;Max_cycle;Signal;HPM_P1;HPM_P2
2021/07/25 00:00:41;;;;;;;9.20;5.65;;;18.30;99.90;;;;;;4207952;28;20028;-62
2021/07/25 00:02:42;;;;;;;7.18;5.32;;;18.30;99.90;;;;;;4208264;28;20044;-64
2021/07/25 00:04:43;;;;;;;9.20;5.88;;;18.30;99.90;;;;;;4208647;28;20089;-63
2021/07/25 00:06:44;;;;;;;9.30;5.80;;;18.30;99.90;;;;;;4207778;28;20077;-63
2021/07/25 00:08:45;;;;;;;9.18;5.75;;;18.30;99.90;;;;;;4208800;28;20040;-64
2021/07/25 00:10:47;;;;;;;7.57;5.63;;;18.20;99.90;;;;;;4206095;28;20446;-62
2021/07/25 00:12:48;;;;;;;19.70;6.93;;;18.20;99.90;;;;;;4208526;28;20094;-63
2021/07/25 00:14:50;;;;;;;14.80;6.60;;;18.10;99.90;;;;;;4207300;28;20024;-63
2021/07/25 00:16:51;;;;;;;12.30;7.30;;;18.00;99.90;;;;;;4209047;28;20047;-63
2021/07/25 00:18:52;;;;;;;16.17;6.95;;;17.90;99.90;;;;;;4207633;28;20040;-63
2021/07/25 00:20:54;;;;;;;9.70;6.90;;;17.80;99.90;;;;;;4208535;28;20542;-63
2021/07/25 00:22:57;;;;;;;10.57;7.10;;;17.70;99.90;;;;;;4207339;28;20093;-63
2021/07/25 00:25:08;;;;;;;9.82;6.85;;;17.70;99.90;;;;;;4208403;28;20036;-62
2021/07/25 00:27:10;;;;;;;15.48;7.20;;;17.70;99.90;;;;;;4206041;28;20101;-63
2021/07/25 00:29:11;;;;;;;10.07;6.72;;;17.60;99.90;;;;;;4208805;28;20044;-63
2021/07/25 00:31:12;;;;;;;14.18;7.55;;;17.50;99.90;;;;;;4206977;28;20024;-63
2021/07/25 00:33:13;;;;;;;9.43;6.80;;;17.50;99.90;;;;;;4208035;28;20058;-63
2021/07/25 00:35:17;;;;;;;11.57;7.32;;;17.40;99.90;;;;;;4208428;28;20620;-62
2021/07/25 00:37:18;;;;;;;11.38;7.38;;;17.30;99.90;;;;;;4207787;28;20082;-63
2021/07/25 00:39:19;;;;;;;8.10;6.07;;;17.20;99.90;;;;;;4207773;28;20040;-63
2021/07/25 00:41:21;;;;;;;11.85;7.78;;;17.20;99.90;;;;;;4206707;28;20036;-63
2021/07/25 00:43:29;;;;;;;13.50;6.88;;;17.20;99.90;;;;;;4208240;28;20036;-64
2021/07/25 00:45:31;;;;;;;12.75;6.75;;;17.20;99.90;;;;;;4206848;28;20430;-63
2021/07/25 00:47:33;;;;;;;10.93;8.20;;;17.20;99.90;;;;;;4208090;28;20365;-63
2021/07/25 00:49:36;;;;;;;14.35;7.70;;;17.00;99.90;;;;;;4207322;28;20093;-62
2021/07/25 00:51:37;;;;;;;12.02;7.38;;;17.00;99.90;;;;;;4208173;28;20019;-62
2021/07/25 00:53:40;;;;;;;12.07;7.32;;;17.00;99.90;;;;;;4206680;28;20078;-64
2021/07/25 00:55:42;;;;;;;10.93;6.47;;;16.90;99.90;;;;;;4208454;28;20093;-63
2021/07/25 00:57:43;;;;;;;9.57;6.82;;;16.90;99.90;;;;;;4206574;28;20545;-63
2021/07/25 00:59:44;;;;;;;9.65;6.70;;;16.90;99.90;;;;;;4207950;28;20032;-63
2021/07/25 01:01:48;;;;;;;10.32;6.90;;;16.80;99.90;;;;;;4207004;28;20492;-63
2021/07/25 01:04:10;;;;;;;11.63;6.50;;;16.80;99.90;;;;;;4208451;28;20121;-62
2021/07/25 01:06:20;;;;;;;10.50;6.55;;;16.70;99.90;;;;;;4206733;28;20111;-63
2021/07/25 01:08:33;;;;;;;11.68;6.93;;;16.60;99.90;;;;;;4208335;28;20094;-63
2021/07/25 01:10:34;;;;;;;11.93;7.78;;;16.50;99.90;;;;;;4205587;28;20036;-63
2021/07/25 01:12:35;;;;;;;12.80;7.90;;;16.40;99.90;;;;;;4207766;28;20028;-63
2021/07/25 01:14:38;;;;;;;14.32;7.05;;;16.40;99.90;;;;;;4206660;28;20053;-63
2021/07/25 01:16:39;;;;;;;9.10;6.47;;;16.30;99.90;;;;;;4207808;28;20032;-62
2021/07/25 01:18:49;;;;;;;14.48;8.07;;;16.30;99.90;;;;;;4207152;28;20090;-62
2021/07/25 01:20:51;;;;;;;11.45;8.13;;;16.20;99.90;;;;;;4207048;28;20036;-64
2021/07/25 01:22:55;;;;;;;12.02;8.43;;;16.20;99.90;;;;;;4205776;28;20587;-62
2021/07/25 01:24:56;;;;;;;14.82;9.00;;;16.30;99.90;;;;;;4206839;28;20365;-63
2021/07/25 01:26:58;;;;;;;16.42;8.10;;;16.20;99.90;;;;;;4206911;28;20057;-62
2021/07/25 01:29:03;;;;;;;13.38;8.93;;;16.20;99.90;;;;;;4206535;28;20048;-62
2021/07/25 01:31:12;;;;;;;15.40;9.60;;;16.20;99.90;;;;;;4207229;28;20028;-63
2021/07/25 01:33:20;;;;;;;15.68;9.70;;;16.20;99.90;;;;;;4206173;28;20113;-63
2021/07/25 01:35:22;;;;;;;12.73;8.90;;;16.20;99.90;;;;;;4207692;28;20044;-63
2021/07/25 01:37:27;;;;;;;12.60;8.50;;;16.10;99.90;;;;;;4206259;28;20036;-62
2021/07/25 01:39:28;;;;;;;16.75;9.48;;;16.10;99.90;;;;;;4207635;28;20085;-63
2021/07/25 01:41:30;;;;;;;12.77;8.45;;;16.00;99.90;;;;;;4206251;28;20089;-63
2021/07/25 01:43:33;;;;;;;12.55;9.02;;;16.10;99.90;;;;;;4208135;28;20044;-63
2021/07/25 01:45:36;;;;;;;14.00;9.40;;;16.10;99.90;;;;;;4207974;28;20101;-62
2021/07/25 01:47:38;;;;;;;15.00;9.40;;;16.00;99.90;;;;;;4207962;28;20040;-62
2021/07/25 01:49:39;;;;;;;17.40;9.93;;;15.90;99.90;;;;;;4205890;28;20082;-63
2021/07/25 01:51:40;;;;;;;21.30;11.23;;;15.70;99.90;;;;;;4207526;28;20468;-63
2021/07/25 01:53:42;;;;;;;13.35;9.65;;;15.70;99.90;;;;;;4206178;28;20039;-64
2021/07/25 01:55:44;;;;;;;19.10;9.80;;;15.70;99.90;;;;;;4207207;28;20090;-63
2021/07/25 01:57:45;;;;;;;14.73;10.00;;;15.70;99.90;;;;;;4206560;28;20089;-63
2021/07/25 01:59:46;;;;;;;19.60;10.55;;;15.70;99.90;;;;;;4206723;28;20040;-63
2021/07/25 02:01:47;;;;;;;13.88;9.80;;;15.70;99.90;;;;;;4206060;28;20096;-65
2021/07/25 02:03:49;;;;;;;14.23;9.20;;;15.70;99.90;;;;;;4206597;28;20040;-63
2021/07/25 02:05:51;;;;;;;15.25;8.93;;;15.70;99.90;;;;;;4206989;28;20105;-64
2021/07/25 02:07:52;;;;;;;13.20;8.85;;;15.60;99.90;;;;;;4205938;28;20040;-64
2021/07/25 02:09:53;;;;;;;16.20;9.90;;;15.60;99.90;;;;;;4207150;28;20048;-63
2021/07/25 02:11:55;;;;;;;16.27;10.02;;;15.60;99.90;;;;;;4206130;28;20077;-63
2021/07/25 02:13:56;;;;;;;13.88;9.63;;;15.60;99.90;;;;;;4207353;28;20036;-64
2021/07/25 02:15:57;;;;;;;13.45;9.35;;;15.60;99.90;;;;;;4206067;28;20485;-64
2021/07/25 02:17:58;;;;;;;12.40;9.07;;;15.60;99.90;;;;;;4207302;28;20036;-63
2021/07/25 02:19:59;;;;;;;15.68;10.00;;;15.60;99.90;;;;;;4205787;28;20423;-64
2021/07/25 02:22:00;;;;;;;14.75;9.65;;;15.60;99.90;;;;;;4209435;28;20035;-64
2021/07/25 02:24:02;;;;;;;15.00;9.57;;;15.60;99.90;;;;;;4209388;28;20032;-63
2021/07/25 02:26:03;;;;;;;17.15;9.63;;;15.60;99.90;;;;;;4210340;28;20105;-63
2021/07/25 02:28:06;;;;;;;14.45;10.07;;;15.60;99.90;;;;;;4209293;28;20448;-64
2021/07/25 02:30:07;;;;;;;16.13;10.18;;;15.50;99.90;;;;;;4209759;28;20097;-64
2021/07/25 02:32:08;;;;;;;19.35;9.80;;;15.50;99.90;;;;;;4209545;28;20475;-63
2021/07/25 02:34:09;;;;;;;16.80;11.27;;;15.50;99.90;;;;;;4210026;28;20081;-63
2021/07/25 02:36:11;;;;;;;13.95;10.20;;;15.50;99.90;;;;;;4209834;28;20480;-63
2021/07/25 02:38:12;;;;;;;15.85;10.05;;;15.50;99.90;;;;;;4209302;28;20117;-65
2021/07/25 02:40:13;;;;;;;16.70;10.32;;;15.50;99.90;;;;;;4210097;28;20032;-64
2021/07/25 02:42:14;;;;;;;17.20;11.15;;;15.60;99.90;;;;;;4208722;28;20496;-63
2021/07/25 02:44:15;;;;;;;16.88;9.52;;;15.60;99.90;;;;;;4210306;28;20037;-64
2021/07/25 02:46:16;;;;;;;15.57;10.65;;;15.60;99.90;;;;;;4209415;28;20101;-64
2021/07/25 02:48:17;;;;;;;18.08;10.82;;;15.70;99.90;;;;;;4210212;28;21452;-64
2021/07/25 02:50:18;;;;;;;16.13;8.95;;;15.60;99.90;;;;;;4208714;28;20450;-64
2021/07/25 02:52:20;;;;;;;14.57;9.68;;;15.60;99.90;;;;;;4210517;28;20044;-63
2021/07/25 02:54:21;;;;;;;17.52;11.07;;;15.60;99.90;;;;;;4208273;28;20077;-63
2021/07/25 02:56:22;;;;;;;18.05;10.00;;;15.60;99.90;;;;;;4209758;28;20484;-64
2021/07/25 02:58:23;;;;;;;16.33;10.00;;;15.70;99.90;;;;;;4208870;28;20032;-64
2021/07/25 03:00:25;;;;;;;19.63;9.98;;;15.60;99.90;;;;;;4209303;28;20028;-64
2021/07/25 03:02:26;;;;;;;15.60;9.60;;;15.70;99.90;;;;;;4208624;28;20020;-62
2021/07/25 03:04:27;;;;;;;13.23;8.95;;;15.70;99.90;;;;;;4209391;28;20036;-64
2021/07/25 03:06:28;;;;;;;14.32;9.35;;;15.70;99.90;;;;;;4209365;28;20491;-63
2021/07/25 03:08:29;;;;;;;16.17;9.07;;;15.70;99.90;;;;;;4208762;28;20089;-64
2021/07/25 03:10:30;;;;;;;15.23;9.82;;;15.70;99.90;;;;;;4209327;28;20625;-63
2021/07/25 03:12:31;;;;;;;11.90;8.40;;;15.70;99.90;;;;;;4208584;28;20049;-63
2021/07/25 03:14:32;;;;;;;14.95;8.57;;;15.70;99.90;;;;;;4209894;28;20438;-63
2021/07/25 03:16:34;;;;;;;13.57;8.20;;;15.70;99.90;;;;;;4208964;28;20043;-65
2021/07/25 03:18:35;;;;;;;9.77;7.65;;;15.80;99.90;;;;;;4209562;28;20725;-66
2021/07/25 03:20:36;;;;;;;12.88;8.00;;;15.90;99.90;;;;;;4208318;28;20040;-66
2021/07/25 03:22:37;;;;;;;12.88;8.27;;;16.00;99.90;;;;;;4209603;28;20090;-66
2021/07/25 03:24:38;;;;;;;11.57;8.05;;;16.20;99.90;;;;;;4208555;28;20086;-63
2021/07/25 03:26:40;;;;;;;12.50;8.20;;;16.40;99.90;;;;;;4209395;28;20105;-65
2021/07/25 03:28:41;;;;;;;12.52;7.85;;;16.50;99.90;;;;;;4208037;28;20043;-64
2021/07/25 03:30:44;;;;;;;11.60;8.20;;;16.60;99.90;;;;;;4209397;28;20044;-64
2021/07/25 03:32:45;;;;;;;13.10;7.57;;;16.80;99.90;;;;;;4207074;28;20024;-64
2021/07/25 03:34:47;;;;;;;9.20;6.95;;;17.00;99.90;;;;;;4207881;28;20040;-64
2021/07/25 03:36:48;;;;;;;14.43;6.90;;;17.20;99.90;;;;;;4208266;28;20073;-66
2021/07/25 03:38:49;;;;;;;12.95;7.13;;;17.40;99.90;;;;;;4208825;28;20081;-64
2021/07/25 03:40:50;;;;;;;9.43;6.53;;;17.70;99.90;;;;;;4208777;28;20085;-65
2021/07/25 03:42:52;;;;;;;10.00;6.63;;;18.00;99.90;;;;;;4207679;28;20061;-65
2021/07/25 03:44:53;;;;;;;12.68;7.10;;;18.20;99.90;;;;;;4208855;28;20446;-64
2021/07/25 03:46:54;;;;;;;9.65;6.47;;;18.50;99.90;;;;;;4207907;28;20081;-65
2021/07/25 03:48:55;;;;;;;9.65;6.63;;;18.70;99.90;;;;;;4209301;28;20032;-63
2021/07/25 03:50:57;;;;;;;12.95;6.88;;;19.00;99.90;;;;;;4207725;28;20053;-63
2021/07/25 03:52:58;;;;;;;9.73;7.05;;;19.30;99.90;;;;;;4209155;28;20446;-63
2021/07/25 03:55:00;;;;;;;11.43;6.32;;;19.60;99.90;;;;;;4207738;28;20120;-66
2021/07/25 03:57:01;;;;;;;10.65;6.10;;;19.80;99.90;;;;;;4209236;28;20100;-65
2021/07/25 03:59:02;;;;;;;10.70;6.07;;;20.10;99.90;;;;;;4207679;28;20434;-65
2021/07/25 04:01:03;;;;;;;14.35;6.15;;;20.20;99.90;;;;;;4208564;28;20090;-64
2021/07/25 04:03:05;;;;;;;10.52;7.07;;;20.50;99.90;;;;;;4208353;28;20125;-63
2021/07/25 04:05:06;;;;;;;9.77;6.80;;;20.90;99.90;;;;;;4208851;28;20097;-64
2021/07/25 04:07:07;;;;;;;10.93;6.35;;;21.20;99.90;;;;;;4207848;28;20060;-64
2021/07/25 04:09:09;;;;;;;10.60;6.95;;;21.20;99.90;;;;;;4207999;28;20558;-64
2021/07/25 04:11:17;;;;;;;14.88;11.48;;;21.00;99.90;;;;;;4208500;28;20062;-64
2021/07/25 04:13:18;;;;;;;13.20;8.55;;;20.80;99.90;;;;;;4207575;28;20481;-64
2021/07/25 04:15:20;;;;;;;9.43;7.18;;;20.70;99.90;;;;;;4208563;28;20044;-64
2021/07/25 04:17:21;;;;;;;11.73;7.03;;;20.80;99.90;;;;;;4207408;28;20028;-64
2021/07/25 04:19:22;;;;;;;14.60;8.93;;;20.70;99.90;;;;;;4208671;28;20447;-64
2021/07/25 04:21:24;;;;;;;9.75;6.70;;;20.70;99.90;;;;;;4207352;28;20024;-64
2021/07/25 04:23:25;;;;;;;11.13;6.38;;;20.80;99.90;;;;;;4209018;28;20036;-64
2021/07/25 04:25:26;;;;;;;7.95;6.25;;;20.90;99.90;;;;;;4207105;28;20028;-63
2021/07/25 04:27:28;;;;;;;12.45;7.30;;;21.30;99.90;;;;;;4208635;28;20731;-64
2021/07/25 04:29:29;;;;;;;12.52;6.72;;;21.80;99.90;;;;;;4207183;28;20028;-64
2021/07/25 04:31:31;;;;;;;8.90;6.10;;;21.70;99.90;;;;;;4208418;28;20028;-65
2021/07/25 04:33:33;;;;;;;7.00;6.13;;;21.80;99.90;;;;;;4206937;28;20055;-63
2021/07/25 04:35:38;;;;;;;12.55;8.38;;;21.90;99.90;;;;;;4208787;28;20480;-64
2021/07/25 04:37:48;;;;;;;11.95;6.78;;;21.90;99.90;;;;;;4207382;28;20429;-63
2021/07/25 04:39:50;;;;;;;16.25;6.93;;;22.00;99.90;;;;;;4207847;28;20089;-64
2021/07/25 04:41:54;;;;;;;8.20;6.10;;;22.00;99.90;;;;;;4207129;28;20561;-64
2021/07/25 04:44:09;;;;;;;14.95;6.82;;;22.20;99.90;;;;;;4207602;28;20074;-64
2021/07/25 04:46:16;;;;;;;11.23;6.53;;;22.70;99.90;;;;;;4206745;28;20044;-64
2021/07/25 04:48:29;;;;;;;11.27;6.20;;;23.20;99.90;;;;;;4207247;28;20426;-64
2021/07/25 04:50:45;;;;;;;8.52;6.53;;;23.90;99.90;;;;;;4207524;28;20020;-65
2021/07/25 04:52:52;;;;;;;7.65;6.85;;;24.20;99.90;;;;;;4208029;28;20078;-64
2021/07/25 04:54:56;;;;;;;11.20;7.18;;;24.20;99.90;;;;;;4207106;28;20406;-64
2021/07/25 04:57:02;;;;;;;12.93;7.95;;;24.10;99.90;;;;;;4207670;28;20051;-64
2021/07/25 04:59:03;;;;;;;14.82;9.73;;;24.00;99.90;;;;;;4206824;28;20445;-64
2021/07/25 05:01:05;;;;;;;13.27;7.53;;;23.90;99.90;;;;;;4207169;28;20032;-64
2021/07/25 05:03:07;;;;;;;11.73;8.18;;;23.60;99.90;;;;;;4207443;28;20381;-64
2021/07/25 05:05:09;;;;;;;12.77;8.10;;;23.60;99.90;;;;;;4206936;28;20023;-65
2021/07/25 05:07:12;;;;;;;15.23;8.23;;;23.70;99.90;;;;;;4207042;28;20032;-64
2021/07/25 05:09:13;;;;;;;15.68;8.27;;;23.90;99.90;;;;;;4206412;28;20377;-65
2021/07/25 05:11:21;;;;;;;14.27;9.55;;;24.10;99.90;;;;;;4207736;28;20040;-64
2021/07/25 05:13:25;;;;;;;12.10;8.00;;;24.50;99.40;;;;;;4206541;28;20126;-64
2021/07/25 05:15:47;;;;;;;14.80;8.43;;;24.90;98.80;;;;;;4207833;28;20450;-64
2021/07/25 05:17:48;;;;;;;12.73;8.43;;;24.90;97.90;;;;;;4206236;28;20089;-64
2021/07/25 05:20:04;;;;;;;16.02;8.38;;;25.00;98.40;;;;;;4207429;28;20016;-64
2021/07/25 05:22:43;;;;;;;12.68;7.57;;;25.10;97.70;;;;;;4206232;28;20040;-65
2021/07/25 05:24:46;;;;;;;14.85;8.27;;;25.10;97.20;;;;;;4206885;28;20425;-63
2021/07/25 05:26:48;;;;;;;14.90;7.65;;;25.40;97.50;;;;;;4206514;28;20117;-64
2021/07/25 05:28:53;;;;;;;12.48;8.43;;;25.70;97.10;;;;;;4207312;28;20414;-64
2021/07/25 05:30:56;;;;;;;13.70;8.07;;;25.90;96.70;;;;;;4206357;28;20078;-64
2021/07/25 05:32:57;;;;;;;14.32;8.32;;;26.00;96.40;;;;;;4207146;28;20353;-64
2021/07/25 05:34:58;;;;;;;17.50;8.40;;;25.90;96.40;;;;;;4206623;28;20040;-64
2021/07/25 05:37:02;;;;;;;14.45;8.88;;;26.20;96.00;;;;;;4207861;28;20028;-64
2021/07/25 05:39:03;;;;;;;15.07;8.25;;;26.10;95.90;;;;;;4206087;28;20024;-64
2021/07/25 05:41:04;;;;;;;11.18;7.57;;;25.90;95.80;;;;;;4207608;28;20036;-64
2021/07/25 05:43:05;;;;;;;12.77;8.27;;;25.80;95.70;;;;;;4205916;28;20043;-63
2021/07/25 05:45:09;;;;;;;11.63;8.13;;;25.10;96.00;;;;;;4207061;28;20040;-64
2021/07/25 05:47:11;;;;;;;19.75;9.35;;;24.70;96.50;;;;;;4205794;28;20039;-65
2021/07/25 05:49:12;;;;;;;12.57;8.65;;;24.40;96.80;;;;;;4206963;28;20028;-63
2021/07/25 05:51:13;;;;;;;10.95;8.18;;;24.40;97.00;;;;;;4205746;28;20028;-64
2021/07/25 05:53:15;;;;;;;14.52;8.55;;;24.60;96.90;;;;;;4206589;28;20024;-63
2021/07/25 05:55:30;;;;;;;13.02;8.70;;;24.50;96.70;;;;;;4204992;28;20085;-64
2021/07/25 05:57:31;;;;;;;11.18;8.18;;;24.30;96.90;;;;;;4206882;28;20043;-64
2021/07/25 05:59:32;;;;;;;17.35;8.50;;;24.30;97.00;;;;;;4206184;28;20522;-64
2021/07/25 06:01:33;;;;;;;15.75;9.10;;;24.20;97.10;;;;;;4205966;28;20036;-64
2021/07/25 06:03:34;;;;;;;12.30;8.25;;;24.10;97.30;;;;;;4206041;28;20020;-64
2021/07/25 06:05:36;;;;;;;11.43;8.10;;;23.80;97.50;;;;;;4205554;28;20020;-63
2021/07/25 06:07:37;;;;;;;17.63;9.18;;;23.60;97.90;;;;;;4207523;28;20040;-65
2021/07/25 06:09:38;;;;;;;14.52;8.85;;;23.60;98.10;;;;;;4205470;28;20032;-62
2021/07/25 06:11:39;;;;;;;12.80;7.90;;;23.50;98.20;;;;;;4206868;28;20489;-64
2021/07/25 06:13:40;;;;;;;13.23;8.48;;;23.20;98.70;;;;;;4205491;28;20040;-64
2021/07/25 06:15:42;;;;;;;12.80;8.57;;;23.30;98.90;;;;;;4206967;28;20032;-63
2021/07/25 06:17:43;;;;;;;14.90;8.93;;;23.40;98.80;;;;;;4205540;28;20052;-64
2021/07/25 06:19:44;;;;;;;13.48;9.38;;;23.40;98.90;;;;;;4206977;28;20081;-64
2021/07/25 06:21:47;;;;;;;15.50;9.90;;;23.20;99.10;;;;;;4205394;28;20036;-65
2021/07/25 06:23:49;;;;;;;17.27;9.18;;;23.00;99.40;;;;;;4206985;28;20090;-65
2021/07/25 06:25:50;;;;;;;13.73;9.45;;;22.80;99.90;;;;;;4204965;28;20036;-64
2021/07/25 06:27:53;;;;;;;13.27;9.32;;;22.80;99.90;;;;;;4187210;28;20070;-64
2021/07/25 06:29:55;;;;;;;12.25;8.80;;;22.80;99.90;;;;;;4208946;28;20112;-65
2021/07/25 06:31:56;;;;;;;16.63;9.50;;;22.90;99.90;;;;;;4211442;28;20047;-64
2021/07/25 06:33:57;;;;;;;13.40;10.30;;;23.00;99.90;;;;;;4204256;28;20032;-64
2021/07/25 06:35:58;;;;;;;18.60;9.18;;;22.80;99.90;;;;;;4204545;28;20384;-66
2021/07/25 06:38:01;;;;;;;15.25;9.32;;;22.80;99.90;;;;;;4205450;28;20093;-65
2021/07/25 06:40:02;;;;;;;18.02;10.07;;;23.20;99.90;;;;;;4203963;28;20028;-65
2021/07/25 06:42:03;;;;;;;12.00;9.32;;;23.20;99.90;;;;;;4204755;28;20055;-65
2021/07/25 06:44:04;;;;;;;13.63;9.02;;;23.40;99.90;;;;;;4204464;28;20085;-65
2021/07/25 06:46:09;;;;;;;13.50;8.98;;;23.30;99.90;;;;;;4205452;28;20129;-64
2021/07/25 06:48:18;;;;;;;12.77;8.75;;;23.30;99.90;;;;;;4203261;28;20085;-66
2021/07/25 06:50:20;;;;;;;12.63;7.93;;;23.50;99.90;;;;;;4205715;28;20360;-65
2021/07/25 06:52:22;;;;;;;10.30;7.97;;;23.60;99.90;;;;;;4204118;28;20109;-66
2021/07/25 06:54:24;;;;;;;12.52;8.68;;;23.40;99.90;;;;;;4205102;28;20032;-64
2021/07/25 06:56:25;;;;;;;9.85;7.65;;;23.70;99.90;;;;;;4202804;28;20036;-74
2021/07/25 06:58:26;;;;;;;10.60;7.88;;;23.50;99.90;;;;;;4206492;28;20377;-65
2021/07/25 07:00:27;;;;;;;15.18;8.23;;;23.70;99.90;;;;;;4205138;28;20044;-66
2021/07/25 07:02:47;;;;;;;12.60;8.18;;;23.70;99.90;;;;;;4205667;28;20047;-66
2021/07/25 07:04:48;;;;;;;11.32;7.95;;;23.80;99.90;;;;;;4205650;28;20208;-67
2021/07/25 07:06:50;;;;;;;14.40;8.50;;;23.90;99.90;;;;;;4205710;28;20093;-62
2021/07/25 07:08:51;;;;;;;11.07;8.07;;;24.00;99.90;;;;;;4207566;28;20036;-74
2021/07/25 07:10:52;;;;;;;14.88;8.27;;;23.90;99.90;;;;;;4208327;28;20430;-65
2021/07/25 07:12:54;;;;;;;9.45;7.00;;;24.00;99.90;;;;;;4208937;28;20533;-64
2021/07/25 07:14:55;;;;;;;10.05;7.53;;;23.70;99.90;;;;;;4208625;28;20044;-62
2021/07/25 07:16:57;;;;;;;9.73;7.20;;;23.90;99.90;;;;;;4208895;28;20549;-61
2021/07/25 07:18:58;;;;;;;8.93;6.97;;;24.00;99.90;;;;;;4208485;28;20509;-64
2021/07/25 07:20:59;;;;;;;7.72;6.68;;;24.20;99.90;;;;;;4209474;28;20036;-62
2021/07/25 07:23:05;;;;;;;9.52;6.68;;;24.50;99.90;;;;;;4207719;28;20028;-60
2021/07/25 07:25:08;;;;;;;8.43;6.65;;;24.50;99.90;;;;;;4209535;28;20073;-64
2021/07/25 07:27:09;;;;;;;8.65;6.45;;;24.40;99.90;;;;;;4207621;28;20457;-62
2021/07/25 07:29:10;;;;;;;9.45;6.22;;;24.30;99.90;;;;;;4209294;28;20016;-60
2021/07/25 07:31:11;;;;;;;9.95;6.53;;;24.30;99.90;;;;;;4208086;28;20472;-63
2021/07/25 07:33:15;;;;;;;8.50;6.47;;;24.30;99.90;;;;;;4209128;28;20040;-61
2021/07/25 07:35:24;;;;;;;8.35;6.30;;;24.30;99.90;;;;;;4208677;28;20093;-62
2021/07/25 07:37:25;;;;;;;9.20;6.28;;;24.20;99.90;;;;;;4209434;28;20044;-63
2021/07/25 07:39:27;;;;;;;9.30;6.18;;;24.40;99.90;;;;;;4207638;28;20430;-61
2021/07/25 07:41:28;;;;;;;8.70;6.75;;;24.80;99.90;;;;;;4209343;28;20035;-64
2021/07/25 07:43:30;;;;;;;9.98;6.60;;;25.00;99.90;;;;;;4208444;28;20510;-69
2021/07/25 07:45:32;;;;;;;8.85;6.30;;;25.20;99.90;;;;;;4207792;28;20478;-62
2021/07/25 07:47:33;;;;;;;10.80;5.97;;;25.40;99.90;;;;;;4207633;28;20488;-62
2021/07/25 07:49:34;;;;;;;7.05;6.18;;;25.40;99.80;;;;;;4207677;28;20043;-61
2021/07/25 07:51:35;;;;;;;9.15;6.40;;;25.50;99.70;;;;;;4208745;28;20513;-62
2021/07/25 07:53:36;;;;;;;6.72;5.90;;;25.40;99.70;;;;;;4207537;28;20053;-63
2021/07/25 07:55:38;;;;;;;7.93;6.18;;;25.50;99.70;;;;;;4208958;28;20097;-61
2021/07/25 07:57:39;;;;;;;7.93;6.60;;;25.50;99.40;;;;;;4207339;28;20093;-62
2021/07/25 07:59:40;;;;;;;15.40;6.35;;;25.40;99.40;;;;;;4208580;28;20105;-63
2021/07/25 08:01:41;;;;;;;8.30;6.53;;;25.20;99.60;;;;;;4206927;28;20028;-61
2021/07/25 08:03:43;;;;;;;8.98;6.38;;;25.20;99.60;;;;;;4208883;28;20496;-63
2021/07/25 08:05:45;;;;;;;10.40;5.82;;;25.10;99.40;;;;;;4207805;28;20081;-62
2021/07/25 08:07:47;;;;;;;12.55;6.28;;;25.00;99.60;;;;;;4208726;28;20064;-62
2021/07/25 08:09:48;;;;;;;8.77;6.22;;;24.90;99.90;;;;;;4207703;28;20036;-62
2021/07/25 08:11:49;;;;;;;6.50;5.90;;;25.00;99.90;;;;;;4208530;28;20040;-63
2021/07/25 08:13:51;;;;;;;9.40;6.65;;;25.10;99.80;;;;;;4207269;28;20107;-63
2021/07/25 08:15:52;;;;;;;8.38;6.13;;;25.20;99.50;;;;;;4206655;28;20040;-61
2021/07/25 08:17:53;;;;;;;8.13;6.07;;;25.20;99.50;;;;;;4207203;28;20032;-65
2021/07/25 08:19:54;;;;;;;10.07;6.13;;;25.20;99.30;;;;;;4207306;28;20028;-62
2021/07/25 08:21:55;;;;;;;8.18;5.38;;;25.10;99.10;;;;;;4208089;28;20028;-62
2021/07/25 08:23:56;;;;;;;7.88;6.25;;;25.10;99.20;;;;;;4207029;28;20040;-61
2021/07/25 08:25:58;;;;;;;7.68;5.68;;;25.20;99.20;;;;;;4217380;28;20113;-62
2021/07/25 08:27:59;;;;;;;6.97;5.85;;;25.30;99.40;;;;;;4223456;28;20119;-61
2021/07/25 08:30:00;;;;;;;7.22;5.35;;;25.30;99.00;;;;;;4224947;28;20513;-61
2021/07/25 08:32:02;;;;;;;7.70;5.80;;;25.50;99.00;;;;;;4223759;28;20084;-61
2021/07/25 08:34:03;;;;;;;9.07;6.03;;;25.50;98.90;;;;;;4225024;27;20089;-61
2021/07/25 08:36:04;;;;;;;8.70;6.22;;;25.50;98.90;;;;;;4223928;28;20426;-61
2021/07/25 08:38:06;;;;;;;8.38;6.05;;;25.50;99.10;;;;;;4224803;28;20089;-60
2021/07/25 08:40:07;;;;;;;10.07;5.78;;;25.60;99.10;;;;;;4223868;28;20491;-62
2021/07/25 08:42:11;;;;;;;9.45;6.43;;;25.70;98.90;;;;;;4224691;27;20128;-61
2021/07/25 08:44:40;;;;;;;7.18;6.38;;;25.60;99.10;;;;;;4223868;28;20088;-61
2021/07/25 08:46:44;;;;;;;7.10;5.72;;;25.70;98.90;;;;;;4224227;28;20520;-61
2021/07/25 08:48:48;;;;;;;6.65;5.93;;;25.60;99.00;;;;;;4222999;28;20092;-61
2021/07/25 08:51:04;;;;;;;9.27;5.82;;;25.60;99.00;;;;;;4224763;27;20124;-62
2021/07/25 08:53:17;;;;;;;8.20;5.82;;;25.60;98.70;;;;;;4223550;27;20047;-62
2021/07/25 08:55:19;;;;;;;6.75;5.53;;;25.70;98.60;;;;;;4224775;28;20512;-62
2021/07/25 08:57:26;;;;;;;8.90;5.82;;;25.80;98.50;;;;;;4223191;28;20092;-61
2021/07/25 08:59:34;;;;;;;8.25;5.75;;;25.80;98.30;;;;;;4223892;28;20023;-63
2021/07/25 09:01:38;;;;;;;8.07;5.85;;;25.70;98.20;;;;;;4222918;28;20053;-62
2021/07/25 09:03:39;;;;;;;7.97;6.05;;;25.70;98.10;;;;;;4224228;28;20032;-61
2021/07/25 09:05:42;;;;;;;8.15;6.50;;;25.70;98.00;;;;;;4224033;27;20092;-61
2021/07/25 09:07:48;;;;;;;8.50;5.68;;;25.70;98.30;;;;;;4223757;28;20035;-61
2021/07/25 09:10:04;;;;;;;11.35;6.72;;;25.80;98.00;;;;;;4223989;27;20108;-61
2021/07/25 09:12:06;;;;;;;6.10;5.50;;;25.80;97.60;;;;;;4223446;28;20049;-62
2021/07/25 09:14:08;;;;;;;9.52;6.50;;;25.80;97.50;;;;;;4223970;27;20043;-62
2021/07/25 09:16:09;;;;;;;6.50;5.53;;;25.80;97.50;;;;;;4223154;28;20020;-62
2021/07/25 09:18:10;;;;;;;7.18;5.45;;;25.90;97.20;;;;;;4224079;28;20024;-62
2021/07/25 09:20:21;;;;;;;7.22;6.10;;;25.90;97.10;;;;;;4222189;28;20035;-61
2021/07/25 09:22:22;;;;;;;6.88;5.90;;;25.90;97.00;;;;;;4223862;27;20100;-62
2021/07/25 09:24:34;;;;;;;10.20;6.28;;;26.00;96.70;;;;;;4222632;28;20483;-61
2021/07/25 09:26:53;;;;;;;6.53;5.78;;;26.00;96.40;;;;;;4223722;27;20055;-62
2021/07/25 09:29:17;;;;;;;7.00;5.97;;;26.10;96.40;;;;;;4223042;28;20028;-62
2021/07/25 09:31:27;;;;;;;9.93;5.82;;;26.20;96.50;;;;;;4222505;27;20445;-62
2021/07/25 09:33:33;;;;;;;7.60;5.82;;;26.30;96.50;;;;;;4223440;28;20012;-62
2021/07/25 09:35:36;;;;;;;6.85;5.93;;;26.40;96.50;;;;;;4223519;28;20080;-61
2021/07/25 09:37:38;;;;;;;6.80;5.88;;;26.50;96.20;;;;;;4222479;28;20081;-62
2021/07/25 09:39:45;;;;;;;8.75;5.47;;;26.50;96.00;;;;;;4223498;28;20512;-62
2021/07/25 09:41:54;;;;;;;7.20;5.65;;;26.60;95.70;;;;;;4222470;28;20357;-61
2021/07/25 09:44:04;;;;;;;7.60;5.80;;;26.60;95.30;;;;;;4224042;28;20036;-62
2021/07/25 09:46:06;;;;;;;6.40;5.60;;;26.50;95.30;;;;;;4222506;28;20103;-62
2021/07/25 09:48:11;;;;;;;10.30;6.35;;;26.40;95.50;;;;;;4224136;28;20096;-61
2021/07/25 09:50:13;;;;;;;8.55;6.40;;;26.40;95.70;;;;;;4222320;28;20711;-62
2021/07/25 09:52:14;;;;;;;7.28;6.20;;;26.40;95.90;;;;;;4224064;28;20043;-61
2021/07/25 09:54:22;;;;;;;9.30;5.82;;;26.50;95.80;;;;;;4222612;28;20084;-61
2021/07/25 09:56:27;;;;;;;6.43;5.78;;;26.60;95.80;;;;;;4223754;28;20144;-62
2021/07/25 09:58:33;;;;;;;10.90;6.03;;;26.70;95.70;;;;;;4222603;28;20069;-62
2021/07/25 10:00:45;;;;;;;6.88;5.53;;;26.80;95.30;;;;;;4223921;28;20044;-61
2021/07/25 10:02:47;;;;;;;9.05;5.82;;;26.80;95.40;;;;;;4222003;28;20072;-61
2021/07/25 10:05:13;;;;;;;6.70;5.95;;;26.90;95.10;;;;;;4223693;28;20035;-61
2021/07/25 10:07:23;;;;;;;6.43;5.82;;;27.00;95.20;;;;;;4222692;28;20138;-61
2021/07/25 10:09:26;;;;;;;5.72;5.15;;;27.20;94.70;;;;;;4224223;28;20092;-60
2021/07/25 10:11:27;;;;;;;8.70;6.00;;;27.40;95.00;;;;;;4222493;28;20104;-61
2021/07/25 10:13:30;;;;;;;11.45;6.00;;;27.60;94.50;;;;;;4224125;28;20100;-61
2021/07/25 10:15:33;;;;;;;9.77;6.97;;;27.60;94.60;;;;;;4221543;28;20139;-60
2021/07/25 10:17:38;;;;;;;8.82;5.95;;;27.60;94.50;;;;;;4223441;28;20023;-61
2021/07/25 10:19:41;;;;;;;6.57;5.35;;;27.60;94.10;;;;;;4222357;28;20015;-61
2021/07/25 10:21:43;;;;;;;12.70;5.40;;;27.50;93.90;;;;;;4223158;28;20020;-61
2021/07/25 10:23:50;;;;;;;8.05;5.78;;;27.40;93.30;;;;;;4222288;28;20019;-61
2021/07/25 10:25:55;;;;;;;8.45;5.57;;;27.40;92.90;;;;;;4222962;28;20463;-61
2021/07/25 10:27:59;;;;;;;11.02;6.88;;;27.40;92.90;;;;;;4222545;28;20084;-62
2021/07/25 10:30:08;;;;;;;8.35;6.07;;;27.40;92.70;;;;;;4222867;28;20076;-61
2021/07/25 10:32:10;;;;;;;7.05;6.13;;;27.30;92.80;;;;;;4222662;28;20089;-61
2021/07/25 10:34:12;;;;;;;10.32;7.00;;;27.30;92.90;;;;;;4222898;28;20039;-61
2021/07/25 10:36:13;;;;;;;8.30;5.97;;;27.40;92.80;;;;;;4223245;28;20065;-61